sensor_id;sensor_type;location;lat;lon;timestamp;P1;durP1;ratioP1;P2;durP2;ratioP2
5827;SDS011;42583;50.240;8.444;2024-03-02T00:05:49;26.02;;;12.05;;
5827;SDS011;42583;50.240;8.444;2024-03-02T00:20:55;16.98;;;8.45;;
5827;SDS011;42583;50.240;8.444;2024-03-02T00:50:57;17.38;;;9.95;;
5827;SDS011;42583;50.240;8.444;2024-03-02T01:05:58;17.67;;;8.18;;
5827;SDS011;42583;50.240;8.444;2024-03-02T01:20:58;12.95;;;6.78;;
5827;SDS011;42583;50.240;8.444;2024-03-02T01:35:59;10.45;;;5.22;;
5827;SDS011;42583;50.240;8.444;2024-03-02T01:50:59;8.23;;;4.07;;
5827;SDS011;42583;50.240;8.444;2024-03-02T02:06:01;5.32;;;3.20;;
5827;SDS011;42583;50.240;8.444;2024-03-02T02:21:02;6.65;;;2.80;;
5827;SDS011;42583;50.240;8.444;2024-03-02T02:36:03;6.95;;;3.30;;
5827;SDS011;42583;50.240;8.444;2024-03-02T02:51:04;7.68;;;3.70;;
5827;SDS011;42583;50.240;8.444;2024-03-02T03:06:05;6.15;;;3.22;;
5827;SDS011;42583;50.240;8.444;2024-03-02T03:21:05;6.63;;;3.58;;
5827;SDS011;42583;50.240;8.444;2024-03-02T03:36:06;7.35;;;3.75;;
5827;SDS011;42583;50.240;8.444;2024-03-02T03:51:06;6.45;;;3.08;;
5827;SDS011;42583;50.240;8.444;2024-03-02T04:06:07;5.75;;;3.20;;
5827;SDS011;42583;50.240;8.444;2024-03-02T04:21:07;6.13;;;3.50;;
5827;SDS011;42583;50.240;8.444;2024-03-02T04:36:08;5.43;;;2.85;;
5827;SDS011;42583;50.240;8.444;2024-03-02T04:51:11;7.05;;;3.50;;
5827;SDS011;42583;50.240;8.444;2024-03-02T05:06:13;5.80;;;2.80;;
5827;SDS011;42583;50.240;8.444;2024-03-02T05:21:13;6.18;;;3.25;;
5827;SDS011;42583;50.240;8.444;2024-03-02T05:36:14;6.43;;;3.25;;
5827;SDS011;42583;50.240;8.444;2024-03-02T05:51:14;5.88;;;3.22;;
5827;SDS011;42583;50.240;8.444;2024-03-02T06:06:15;8.23;;;3.85;;
5827;SDS011;42583;50.240;8.444;2024-03-02T06:21:16;8.07;;;3.80;;
5827;SDS011;42583;50.240;8.444;2024-03-02T06:36:17;6.10;;;3.28;;
5827;SDS011;42583;50.240;8.444;2024-03-02T06:51:18;6.53;;;3.35;;
5827;SDS011;42583;50.240;8.444;2024-03-02T07:06:18;8.43;;;4.57;;
5827;SDS011;42583;50.240;8.444;2024-03-02T07:21:19;6.47;;;3.80;;
5827;SDS011;42583;50.240;8.444;2024-03-02T07:36:19;4.70;;;2.92;;
5827;SDS011;42583;50.240;8.444;2024-03-02T07:51:20;6.82;;;3.30;;
5827;SDS011;42583;50.240;8.444;2024-03-02T08:06:20;6.43;;;3.00;;
5827;SDS011;42583;50.240;8.444;2024-03-02T08:21:21;6.57;;;3.58;;
5827;SDS011;42583;50.240;8.444;2024-03-02T08:36:25;6.70;;;3.65;;
5827;SDS011;42583;50.240;8.444;2024-03-02T08:51:25;7.65;;;4.40;;
5827;SDS011;42583;50.240;8.444;2024-03-02T09:06:26;11.70;;;3.70;;
5827;SDS011;42583;50.240;8.444;2024-03-02T09:21:29;4.53;;;2.85;;
5827;SDS011;42583;50.240;8.444;2024-03-02T09:36:30;3.78;;;2.20;;
5827;SDS011;42583;50.240;8.444;2024-03-02T09:51:31;4.45;;;2.80;;
5827;SDS011;42583;50.240;8.444;2024-03-02T10:06:32;5.95;;;2.53;;
5827;SDS011;42583;50.240;8.444;2024-03-02T10:21:32;3.67;;;2.47;;
5827;SDS011;42583;50.240;8.444;2024-03-02T10:36:33;4.97;;;2.90;;
5827;SDS011;42583;50.240;8.444;2024-03-02T10:51:35;3.45;;;2.40;;
5827;SDS011;42583;50.240;8.444;2024-03-02T11:06:36;2.83;;;1.95;;
5827;SDS011;42583;50.240;8.444;2024-03-02T11:21:39;2.47;;;1.55;;
5827;SDS011;42583;50.240;8.444;2024-03-02T11:36:42;2.97;;;1.63;;
5827;SDS011;42583;50.240;8.444;2024-03-02T11:52:00;2.53;;;1.60;;
5827;SDS011;42583;50.240;8.444;2024-03-02T12:07:02;3.90;;;1.52;;
5827;SDS011;42583;50.240;8.444;2024-03-02T12:22:03;1.33;;;1.23;;
5827;SDS011;42583;50.240;8.444;2024-03-02T12:37:05;1.40;;;1.30;;
5827;SDS011;42583;50.240;8.444;2024-03-02T12:52:06;0.95;;;0.95;;
5827;SDS011;42583;50.240;8.444;2024-03-02T13:07:07;2.33;;;1.33;;
5827;SDS011;42583;50.240;8.444;2024-03-02T13:22:08;2.10;;;1.67;;
5827;SDS011;42583;50.240;8.444;2024-03-02T13:37:08;2.92;;;1.60;;
5827;SDS011;42583;50.240;8.444;2024-03-02T13:52:09;4.65;;;2.97;;
5827;SDS011;42583;50.240;8.444;2024-03-02T14:07:11;5.33;;;3.03;;
5827;SDS011;42583;50.240;8.444;2024-03-02T14:22:12;6.03;;;3.53;;
5827;SDS011;42583;50.240;8.444;2024-03-02T14:37:15;5.95;;;3.90;;
5827;SDS011;42583;50.240;8.444;2024-03-02T15:07:18;5.28;;;3.50;;
5827;SDS011;42583;50.240;8.444;2024-03-02T15:22:19;4.40;;;3.40;;
5827;SDS011;42583;50.240;8.444;2024-03-02T15:37:19;5.63;;;3.40;;
5827;SDS011;42583;50.240;8.444;2024-03-02T15:52:20;4.63;;;2.80;;
5827;SDS011;42583;50.240;8.444;2024-03-02T16:07:21;5.65;;;2.90;;
5827;SDS011;42583;50.240;8.444;2024-03-02T16:22:22;3.38;;;2.25;;
5827;SDS011;42583;50.240;8.444;2024-03-02T16:37:23;4.60;;;2.47;;
5827;SDS011;42583;50.240;8.444;2024-03-02T16:52:26;3.88;;;2.50;;
5827;SDS011;42583;50.240;8.444;2024-03-02T17:07:29;5.28;;;2.70;;
5827;SDS011;42583;50.240;8.444;2024-03-02T17:22:31;4.35;;;2.70;;
5827;SDS011;42583;50.240;8.444;2024-03-02T17:37:31;4.88;;;2.60;;
5827;SDS011;42583;50.240;8.444;2024-03-02T17:52:34;5.53;;;3.13;;
5827;SDS011;42583;50.240;8.444;2024-03-02T18:07:35;5.90;;;3.33;;
5827;SDS011;42583;50.240;8.444;2024-03-02T18:22:36;6.57;;;3.45;;
5827;SDS011;42583;50.240;8.444;2024-03-02T18:37:37;8.48;;;4.57;;
5827;SDS011;42583;50.240;8.444;2024-03-02T18:52:38;8.93;;;4.65;;
5827;SDS011;42583;50.240;8.444;2024-03-02T19:07:38;8.68;;;4.20;;
5827;SDS011;42583;50.240;8.444;2024-03-02T19:22:39;9.25;;;5.20;;
5827;SDS011;42583;50.240;8.444;2024-03-02T19:37:40;8.32;;;4.90;;
5827;SDS011;42583;50.240;8.444;2024-03-02T19:52:40;11.38;;;5.43;;
5827;SDS011;42583;50.240;8.444;2024-03-02T20:07:41;14.48;;;6.28;;
5827;SDS011;42583;50.240;8.444;2024-03-02T20:22:42;14.73;;;7.72;;
5827;SDS011;42583;50.240;8.444;2024-03-02T20:37:42;17.02;;;7.97;;
5827;SDS011;42583;50.240;8.444;2024-03-02T20:52:43;19.88;;;8.00;;
5827;SDS011;42583;50.240;8.444;2024-03-02T21:07:45;18.73;;;8.18;;
5827;SDS011;42583;50.240;8.444;2024-03-02T21:22:45;18.98;;;8.55;;
5827;SDS011;42583;50.240;8.444;2024-03-02T21:52:51;14.68;;;7.25;;
5827;SDS011;42583;50.240;8.444;2024-03-02T22:07:53;15.98;;;6.88;;
5827;SDS011;42583;50.240;8.444;2024-03-02T22:22:54;14.98;;;7.28;;
5827;SDS011;42583;50.240;8.444;2024-03-02T22:37:55;14.70;;;6.72;;
5827;SDS011;42583;50.240;8.444;2024-03-02T22:52:55;18.65;;;9.55;;
5827;SDS011;42583;50.240;8.444;2024-03-02T23:07:56;22.75;;;10.05;;
5827;SDS011;42583;50.240;8.444;2024-03-02T23:22:57;25.70;;;12.75;;
5827;SDS011;42583;50.240;8.444;2024-03-02T23:38:03;38.10;;;12.95;;
5827;SDS011;42583;50.240;8.444;2024-03-02T23:53:04;30.83;;;13.32;;
